createdAt,value
2019-04-29T00:01:35.498Z,2.40
2019-04-29T00:04:04.874Z,2.20
2019-04-29T00:06:33.876Z,6.10
2019-04-29T00:09:11.202Z,2.43
2019-04-29T00:11:42.274Z,8.53
2019-04-29T00:14:11.602Z,7.03
2019-04-29T00:16:54.022Z,3.13
2019-04-29T00:19:36.617Z,4.07
2019-04-29T00:22:08.955Z,2.93
2019-04-29T00:24:36.904Z,3.33
2019-04-29T00:27:06.158Z,2.13
2019-04-29T00:29:35.188Z,2.20
2019-04-29T00:32:04.636Z,2.10
2019-04-29T00:34:34.081Z,2.23
2019-04-29T00:37:16.716Z,1.93
2019-04-29T00:40:03.616Z,2.50
2019-04-29T00:42:34.133Z,2.43
2019-04-29T00:45:03.262Z,2.40
2019-04-29T00:47:32.211Z,2.23
2019-04-29T00:50:01.270Z,2.23
2019-04-29T00:52:30.293Z,2.27
2019-04-29T00:55:00.971Z,2.07
2019-04-29T00:57:30.054Z,2.50
2019-04-29T00:59:59.066Z,2.67
2019-04-29T01:02:28.543Z,2.20
2019-04-29T01:04:57.586Z,2.23
2019-04-29T01:07:26.394Z,2.63
2019-04-29T01:09:55.530Z,2.20
2019-04-29T01:12:24.597Z,2.10
2019-04-29T01:14:53.815Z,1.80
2019-04-29T01:17:23.139Z,1.70
2019-04-29T01:19:52.438Z,1.70
2019-04-29T01:22:21.535Z,1.47
2019-04-29T01:24:50.559Z,1.50
2019-04-29T01:27:21.195Z,1.43
2019-04-29T01:29:53.164Z,1.07
2019-04-29T01:32:22.271Z,1.20
2019-04-29T01:34:55.204Z,1.00
2019-04-29T01:37:25.907Z,1.20
2019-04-29T01:39:56.598Z,1.03
2019-04-29T01:42:27.136Z,1.00
2019-04-29T01:44:56.303Z,0.90
2019-04-29T01:47:25.431Z,0.93
2019-04-29T01:49:54.667Z,1.10
2019-04-29T01:52:23.704Z,1.27
2019-04-29T01:54:52.606Z,1.10
2019-04-29T01:57:21.762Z,1.00
2019-04-29T01:59:50.798Z,2.93
2019-04-29T02:02:19.982Z,1.90
2019-04-29T02:04:48.925Z,2.10
2019-04-29T02:07:18.127Z,1.73
2019-04-29T02:09:57.463Z,0.90
2019-04-29T02:12:26.567Z,0.97
2019-04-29T02:14:55.681Z,1.20
2019-04-29T02:17:24.713Z,1.10
2019-04-29T02:19:55.331Z,1.07
2019-04-29T02:22:38.100Z,1.50
2019-04-29T02:25:08.884Z,1.40
2019-04-29T02:27:37.962Z,1.30
2019-04-29T02:30:07.687Z,1.60
2019-04-29T02:32:36.761Z,1.30
2019-04-29T02:35:06.095Z,1.27
2019-04-29T02:37:36.718Z,1.10
2019-04-29T02:40:10.828Z,1.10
2019-04-29T02:42:50.749Z,1.23
2019-04-29T02:45:21.270Z,1.33
2019-04-29T02:47:53.237Z,0.90
2019-04-29T02:50:22.235Z,1.10
2019-04-29T02:52:51.248Z,1.33
2019-04-29T02:55:21.955Z,1.20
2019-04-29T02:58:01.411Z,1.20
2019-04-29T03:00:48.065Z,1.00
2019-04-29T03:03:24.640Z,1.17
2019-04-29T03:05:55.185Z,1.00
2019-04-29T03:08:24.235Z,1.17
2019-04-29T03:10:53.272Z,1.30
2019-04-29T03:13:22.264Z,1.10
2019-04-29T03:15:53.992Z,1.20
2019-04-29T03:18:24.734Z,1.47
2019-04-29T03:20:55.347Z,1.37
2019-04-29T03:23:26.480Z,1.33
2019-04-29T03:25:55.744Z,1.57
2019-04-29T03:28:24.843Z,1.60
2019-04-29T03:30:54.003Z,1.30
2019-04-29T03:33:23.162Z,1.40
2019-04-29T03:35:52.551Z,1.43
2019-04-29T03:38:21.515Z,1.57
2019-04-29T03:40:50.507Z,1.40
2019-04-29T03:43:19.622Z,1.37
2019-04-29T03:45:50.278Z,1.93
2019-04-29T03:48:19.422Z,1.60
2019-04-29T03:50:48.773Z,1.67
2019-04-29T03:53:17.924Z,2.00
2019-04-29T03:55:50.107Z,1.27
2019-04-29T03:58:19.078Z,1.30
2019-04-29T04:00:49.791Z,1.40
2019-04-29T04:03:20.499Z,1.40
2019-04-29T04:05:51.226Z,1.73
2019-04-29T04:08:22.028Z,1.50
2019-04-29T04:10:51.173Z,1.60
2019-04-29T04:13:23.047Z,1.43
2019-04-29T04:15:52.159Z,1.47
2019-04-29T04:18:29.062Z,1.50
2019-04-29T04:20:58.163Z,1.83
2019-04-29T04:23:30.185Z,1.43
2019-04-29T04:25:59.275Z,1.47
2019-04-29T04:28:28.786Z,1.57
2019-04-29T04:30:57.732Z,1.60
2019-04-29T04:33:26.837Z,1.67
2019-04-29T04:35:55.714Z,1.43
2019-04-29T04:38:24.746Z,1.50
2019-04-29T04:41:01.331Z,1.50
2019-04-29T04:43:30.277Z,2.70
2019-04-29T04:45:59.245Z,2.30
2019-04-29T04:48:28.254Z,2.10
2019-04-29T04:51:00.296Z,1.70
2019-04-29T04:53:29.351Z,2.00
2019-04-29T04:55:59.966Z,1.83
2019-04-29T04:58:28.922Z,2.30
2019-04-29T05:00:59.624Z,2.27
2019-04-29T05:03:28.661Z,2.30
2019-04-29T05:05:57.624Z,2.10
2019-04-29T05:08:26.718Z,1.90
2019-04-29T05:10:55.654Z,2.03
2019-04-29T05:13:28.226Z,2.27
2019-04-29T05:15:55.137Z,2.60
2019-04-29T05:18:24.070Z,2.37
2019-04-29T05:20:52.960Z,2.40
2019-04-29T05:23:25.156Z,1.90
2019-04-29T05:25:54.274Z,2.27
2019-04-29T05:28:24.793Z,2.30
2019-04-29T05:30:53.948Z,2.30
2019-04-29T05:33:22.864Z,2.30
2019-04-29T05:36:11.791Z,2.40
2019-04-29T05:38:42.282Z,2.67
2019-04-29T05:41:11.446Z,2.50
2019-04-29T05:43:42.377Z,2.77
2019-04-29T05:46:12.891Z,2.50
2019-04-29T05:48:42.694Z,2.80
2019-04-29T05:51:28.570Z,2.93
2019-04-29T05:53:59.277Z,2.23
2019-04-29T05:56:28.138Z,4.40
2019-04-29T05:58:57.191Z,4.00
2019-04-29T06:01:27.748Z,3.20
2019-04-29T06:03:57.030Z,2.40
2019-04-29T06:06:26.132Z,2.40
2019-04-29T06:08:55.051Z,3.03
2019-04-29T06:11:25.262Z,2.50
2019-04-29T06:13:55.353Z,2.57
2019-04-29T06:16:24.496Z,2.97
2019-04-29T06:18:59.518Z,2.70
2019-04-29T06:21:24.043Z,2.80
2019-04-29T06:23:54.558Z,2.37
2019-04-29T06:26:23.722Z,2.87
2019-04-29T06:28:52.634Z,3.03
2019-04-29T06:31:21.657Z,2.87
2019-04-29T06:33:50.680Z,2.50
2019-04-29T06:36:19.509Z,2.93
2019-04-29T06:38:48.547Z,3.07
2019-04-29T06:41:17.598Z,3.20
2019-04-29T06:43:46.443Z,3.47
2019-04-29T06:46:15.630Z,3.03
2019-04-29T06:48:44.728Z,3.50
2019-04-29T06:51:13.772Z,3.33
2019-04-29T06:53:42.964Z,3.30
2019-04-29T06:56:12.014Z,3.87
2019-04-29T06:58:41.082Z,3.70
2019-04-29T07:01:09.981Z,3.50
2019-04-29T07:03:38.903Z,3.20
2019-04-29T07:06:07.928Z,3.13
2019-04-29T07:08:39.677Z,2.90
2019-04-29T07:11:08.813Z,3.20
2019-04-29T07:13:40.647Z,2.67
2019-04-29T07:16:09.563Z,2.70
2019-04-29T07:18:40.379Z,3.23
2019-04-29T07:21:11.993Z,3.10
2019-04-29T07:23:39.758Z,2.87
2019-04-29T07:26:08.706Z,2.77
2019-04-29T07:28:37.586Z,2.70
2019-04-29T07:31:06.483Z,2.87
2019-04-29T07:33:35.347Z,2.70
2019-04-29T07:36:11.292Z,2.67
2019-04-29T07:38:41.706Z,2.63
2019-04-29T07:41:10.057Z,2.50
2019-04-29T07:43:43.041Z,2.30
2019-04-29T07:46:20.387Z,2.53
2019-04-29T07:49:00.783Z,2.53
2019-04-29T07:51:19.864Z,2.57
2019-04-29T07:53:48.687Z,2.77
2019-04-29T07:56:17.556Z,2.87
2019-04-29T07:58:48.548Z,2.70
2019-04-29T08:01:19.782Z,2.67
2019-04-29T08:03:47.470Z,2.80
2019-04-29T08:06:16.499Z,3.00
2019-04-29T08:08:54.806Z,3.37
2019-04-29T08:11:16.744Z,6.10
2019-04-29T08:13:48.506Z,3.27
2019-04-29T08:16:18.597Z,3.23
2019-04-29T08:18:49.593Z,8.80
2019-04-29T08:21:18.819Z,2.97
2019-04-29T08:23:47.812Z,2.87
2019-04-29T08:26:16.677Z,2.80
2019-04-29T08:28:45.791Z,3.77
2019-04-29T08:31:16.712Z,3.73
2019-04-29T08:33:46.758Z,11.23
2019-04-29T08:36:16.123Z,4.83
2019-04-29T08:38:44.982Z,14.47
2019-04-29T08:41:13.979Z,6.60
2019-04-29T08:43:44.687Z,3.30
2019-04-29T08:46:15.151Z,3.00
2019-04-29T08:48:45.897Z,2.60
2019-04-29T08:51:14.621Z,2.60
2019-04-29T08:53:43.538Z,4.33
2019-04-29T08:56:12.743Z,3.40
2019-04-29T08:58:44.068Z,2.60
2019-04-29T09:01:12.185Z,3.13
2019-04-29T09:03:41.264Z,2.90
2019-04-29T09:06:10.163Z,3.17
2019-04-29T09:08:53.446Z,3.23
2019-04-29T09:11:12.977Z,3.10
2019-04-29T09:13:40.546Z,2.97
2019-04-29T09:16:09.615Z,3.03
2019-04-29T09:18:38.593Z,3.23
2019-04-29T09:21:07.480Z,3.23
2019-04-29T09:23:38.103Z,3.20
2019-04-29T09:26:08.733Z,3.00
2019-04-29T09:28:37.846Z,3.20
2019-04-29T09:31:06.883Z,3.43
2019-04-29T09:33:35.749Z,3.20
2019-04-29T09:36:04.643Z,2.77
2019-04-29T09:38:36.967Z,2.67
2019-04-29T09:41:05.738Z,3.00
2019-04-29T09:43:36.265Z,3.40
2019-04-29T09:46:09.579Z,3.50
2019-04-29T09:48:38.712Z,3.00
2019-04-29T09:51:17.268Z,3.50
2019-04-29T09:53:38.487Z,3.00
2019-04-29T09:56:07.259Z,3.37
2019-04-29T09:58:36.219Z,3.03
2019-04-29T10:01:22.788Z,2.90
2019-04-29T10:03:56.240Z,2.87
2019-04-29T10:06:35.359Z,2.73
2019-04-29T10:09:07.367Z,2.87
2019-04-29T10:11:36.213Z,3.50
2019-04-29T10:14:05.225Z,3.07
2019-04-29T10:16:41.584Z,2.50
2019-04-29T10:19:28.279Z,3.47
2019-04-29T10:21:57.266Z,3.47
2019-04-29T10:24:26.302Z,3.53
2019-04-29T10:26:55.258Z,5.87
2019-04-29T10:29:25.935Z,3.07
2019-04-29T10:31:55.325Z,3.50
2019-04-29T10:34:27.020Z,2.80
2019-04-29T10:36:55.220Z,3.03
2019-04-29T10:39:25.916Z,3.33
2019-04-29T10:41:55.089Z,3.03
2019-04-29T10:44:28.556Z,3.07
2019-04-29T10:47:04.792Z,3.10
2019-04-29T10:49:49.646Z,2.90
2019-04-29T10:52:18.353Z,3.30
2019-04-29T10:54:51.276Z,3.87
2019-04-29T10:57:18.218Z,3.63
2019-04-29T10:59:50.280Z,3.47
2019-04-29T11:02:30.344Z,3.37
2019-04-29T11:05:07.997Z,3.20
2019-04-29T11:07:45.639Z,2.87
2019-04-29T11:10:25.728Z,3.60
2019-04-29T11:12:56.230Z,3.67
2019-04-29T11:15:28.820Z,3.43
2019-04-29T11:17:59.802Z,3.20
2019-04-29T11:20:27.924Z,3.23
2019-04-29T11:23:17.875Z,3.67
2019-04-29T11:25:55.882Z,3.40
2019-04-29T11:28:24.924Z,3.03
2019-04-29T11:30:54.167Z,3.30
2019-04-29T11:33:25.048Z,3.07
2019-04-29T11:35:59.210Z,3.13
2019-04-29T11:38:28.527Z,3.10
2019-04-29T11:40:56.930Z,3.20
2019-04-29T11:43:27.133Z,3.10
2019-04-29T11:45:56.190Z,3.37
2019-04-29T11:48:25.124Z,2.80
2019-04-29T11:50:55.780Z,3.27
2019-04-29T11:53:27.990Z,2.93
2019-04-29T11:55:58.692Z,3.00
2019-04-29T11:58:45.245Z,2.77
2019-04-29T12:01:18.345Z,2.40
2019-04-29T12:03:51.516Z,2.30
2019-04-29T12:06:20.762Z,2.27
2019-04-29T12:08:53.237Z,2.33
2019-04-29T12:11:20.711Z,2.50
2019-04-29T12:14:06.193Z,2.50
2019-04-29T12:16:45.438Z,2.43
2019-04-29T12:19:21.298Z,2.23
2019-04-29T12:21:49.328Z,2.40
2019-04-29T12:24:18.850Z,3.43
2019-04-29T12:26:47.780Z,3.10
2019-04-29T12:29:18.118Z,3.60
2019-04-29T12:31:50.830Z,3.80
2019-04-29T12:34:36.866Z,2.97
2019-04-29T12:37:07.373Z,3.00
2019-04-29T12:39:54.148Z,2.57
2019-04-29T12:42:43.164Z,3.10
2019-04-29T12:45:19.512Z,3.27
2019-04-29T12:47:47.378Z,3.37
2019-04-29T12:50:17.461Z,3.40
2019-04-29T12:52:46.804Z,2.93
2019-04-29T12:55:29.476Z,3.17
2019-04-29T12:57:51.102Z,3.40
2019-04-29T13:00:20.398Z,3.47
2019-04-29T13:03:08.716Z,2.70
2019-04-29T13:05:58.539Z,3.13
2019-04-29T13:08:29.693Z,3.20
2019-04-29T13:11:03.749Z,4.27
2019-04-29T13:13:32.996Z,3.40
2019-04-29T13:16:03.743Z,5.60
2019-04-29T13:18:53.948Z,3.70
2019-04-29T13:21:22.239Z,3.77
2019-04-29T13:23:59.549Z,3.77
2019-04-29T13:26:28.261Z,5.50
2019-04-29T13:29:01.973Z,4.63
2019-04-29T13:31:37.982Z,3.77
2019-04-29T13:34:03.365Z,3.60
2019-04-29T13:36:28.502Z,4.30
2019-04-29T13:38:57.542Z,3.97
2019-04-29T13:41:28.298Z,3.10
2019-04-29T13:44:05.541Z,3.40
2019-04-29T13:46:46.151Z,3.20
2019-04-29T13:49:25.886Z,3.47
2019-04-29T13:51:56.489Z,3.47
2019-04-29T13:54:25.538Z,3.60
2019-04-29T13:56:56.653Z,3.00
2019-04-29T13:59:27.150Z,3.00
2019-04-29T14:02:09.929Z,3.20
2019-04-29T14:04:40.615Z,3.70
2019-04-29T14:07:14.144Z,3.60
2019-04-29T14:09:43.072Z,3.10
2019-04-29T14:12:46.647Z,4.00
2019-04-29T14:14:43.035Z,2.63
2019-04-29T14:17:25.347Z,2.70
2019-04-29T14:19:42.705Z,3.10
2019-04-29T14:22:21.878Z,2.73
2019-04-29T14:24:42.621Z,2.70
2019-04-29T14:27:23.950Z,2.30
2019-04-29T14:29:42.352Z,2.60
2019-04-29T14:32:11.435Z,3.43
2019-04-29T14:34:57.315Z,3.30
2019-04-29T14:37:26.352Z,3.23
2019-04-29T14:39:58.018Z,2.77
2019-04-29T14:42:33.374Z,3.23
2019-04-29T14:45:03.903Z,3.17
2019-04-29T14:47:43.538Z,2.83
2019-04-29T14:50:15.730Z,2.90
2019-04-29T14:52:49.372Z,3.00
2019-04-29T14:55:19.921Z,2.60
2019-04-29T14:57:47.622Z,2.80
2019-04-29T15:00:19.817Z,2.53
2019-04-29T15:02:48.959Z,2.40
2019-04-29T15:05:18.096Z,2.80
2019-04-29T15:07:47.341Z,2.87
2019-04-29T15:10:16.525Z,2.67
2019-04-29T15:13:01.835Z,2.30
2019-04-29T15:15:29.742Z,2.67
2019-04-29T15:18:01.179Z,3.57
2019-04-29T15:20:40.805Z,3.17
2019-04-29T15:23:09.855Z,2.93
2019-04-29T15:25:38.714Z,3.00
2019-04-29T15:28:07.750Z,2.93
2019-04-29T15:30:37.141Z,2.53
2019-04-29T15:33:07.289Z,2.60
2019-04-29T15:35:36.416Z,2.33
2019-04-29T15:38:05.518Z,2.63
2019-04-29T15:40:42.200Z,2.23
2019-04-29T15:43:05.156Z,2.37
2019-04-29T15:45:34.301Z,2.47
2019-04-29T15:48:03.214Z,3.47
2019-04-29T15:50:32.589Z,2.13
2019-04-29T15:53:04.384Z,2.40
2019-04-29T15:55:34.820Z,2.80
2019-04-29T15:58:04.275Z,2.37
2019-04-29T16:00:37.984Z,1.60
2019-04-29T16:03:04.103Z,1.40
2019-04-29T16:05:56.297Z,1.60
2019-04-29T16:08:21.590Z,1.40
2019-04-29T16:11:10.698Z,1.60
2019-04-29T16:13:39.575Z,1.90
2019-04-29T16:16:08.528Z,2.00
2019-04-29T16:18:37.396Z,1.80
2019-04-29T16:21:09.238Z,1.80
2019-04-29T16:23:40.108Z,2.03
2019-04-29T16:26:09.253Z,1.93
2019-04-29T16:28:40.137Z,2.23
2019-04-29T16:31:12.433Z,1.80
2019-04-29T16:33:40.009Z,1.87
2019-04-29T16:36:09.263Z,1.70
2019-04-29T16:38:38.283Z,1.90
2019-04-29T16:41:20.817Z,2.20
2019-04-29T16:43:53.618Z,2.30
2019-04-29T16:46:35.781Z,2.30
2019-04-29T16:49:00.573Z,2.30
2019-04-29T16:51:29.595Z,2.77
2019-04-29T16:53:58.484Z,4.57
2019-04-29T16:56:28.208Z,3.07
2019-04-29T16:58:57.180Z,3.20
2019-04-29T17:01:26.120Z,2.30
2019-04-29T17:03:55.176Z,2.33
2019-04-29T17:06:24.171Z,3.10
2019-04-29T17:09:04.872Z,2.73
2019-04-29T17:11:39.731Z,2.83
2019-04-29T17:14:10.234Z,3.00
2019-04-29T17:16:39.597Z,2.93
2019-04-29T17:19:08.780Z,14.47
2019-04-29T17:21:37.743Z,3.50
2019-04-29T17:24:06.711Z,9.80
2019-04-29T17:26:40.201Z,4.30
2019-04-29T17:29:38.365Z,4.00
2019-04-29T17:32:08.790Z,6.13
2019-04-29T17:34:58.027Z,6.77
2019-04-29T17:37:10.710Z,4.30
2019-04-29T17:39:39.614Z,4.73
2019-04-29T17:42:08.785Z,5.57
2019-04-29T17:44:39.477Z,2.87
2019-04-29T17:47:13.402Z,5.00
2019-04-29T17:50:02.155Z,3.10
2019-04-29T17:52:31.058Z,3.30
2019-04-29T17:55:01.748Z,3.43
2019-04-29T17:57:32.336Z,3.70
2019-04-29T18:00:19.435Z,3.30
2019-04-29T18:03:00.888Z,3.43
2019-04-29T18:05:33.160Z,5.63
2019-04-29T18:08:12.283Z,4.13
2019-04-29T18:10:42.937Z,3.63
2019-04-29T18:13:12.392Z,4.10
2019-04-29T18:15:58.663Z,3.90
2019-04-29T18:18:17.411Z,4.30
2019-04-29T18:20:52.884Z,4.20
2019-04-29T18:23:29.152Z,5.00
2019-04-29T18:25:59.979Z,4.50
2019-04-29T18:28:29.148Z,4.20
2019-04-29T18:30:58.050Z,4.40
2019-04-29T18:33:30.178Z,23.23
2019-04-29T18:36:03.745Z,5.57
2019-04-29T18:38:28.418Z,5.30
2019-04-29T18:40:57.314Z,4.70
2019-04-29T18:43:26.707Z,4.97
2019-04-29T18:45:58.843Z,4.93
2019-04-29T18:48:27.114Z,5.43
2019-04-29T18:50:57.136Z,5.07
2019-04-29T18:53:26.479Z,4.70
2019-04-29T18:55:58.523Z,4.57
2019-04-29T18:58:27.659Z,3.93
2019-04-29T19:00:56.654Z,5.85
2019-04-29T19:03:33.169Z,5.23
2019-04-29T19:06:03.233Z,4.70
2019-04-29T19:08:32.993Z,5.00
2019-04-29T19:11:01.867Z,4.90
2019-04-29T19:13:31.115Z,4.80
2019-04-29T19:16:09.593Z,5.07
2019-04-29T19:18:33.598Z,5.23
2019-04-29T19:21:02.882Z,5.17
2019-04-29T19:23:31.918Z,4.90
2019-04-29T19:26:01.038Z,5.00
2019-04-29T19:28:46.985Z,4.90
2019-04-29T19:31:16.071Z,5.37
2019-04-29T19:33:46.201Z,5.10
2019-04-29T19:36:18.526Z,5.23
2019-04-29T19:38:47.406Z,5.27
2019-04-29T19:41:18.142Z,5.43
2019-04-29T19:43:48.253Z,5.73
2019-04-29T19:46:24.303Z,5.10
2019-04-29T19:48:48.622Z,5.30
2019-04-29T19:51:18.631Z,5.10
2019-04-29T19:53:49.614Z,5.03
2019-04-29T19:56:23.206Z,5.63
2019-04-29T19:58:49.420Z,4.97
2019-04-29T20:01:27.262Z,5.63
2019-04-29T20:03:52.107Z,5.40
2019-04-29T20:06:25.866Z,5.47
2019-04-29T20:08:57.203Z,5.97
2019-04-29T20:11:38.077Z,5.20
2019-04-29T20:18:08.997Z,5.90
2019-04-29T20:21:08.618Z,5.80
2019-04-29T20:23:36.154Z,8.80
2019-04-29T20:26:13.977Z,6.57
2019-04-29T20:28:33.255Z,6.30
2019-04-29T20:31:15.342Z,7.67
2019-04-29T20:33:33.231Z,21.97
2019-04-29T20:36:02.742Z,8.70
2019-04-29T20:38:35.196Z,7.17
2019-04-29T20:41:05.572Z,7.00
2019-04-29T20:43:33.382Z,7.53
2019-04-29T20:46:04.314Z,7.97
2019-04-29T20:48:36.519Z,7.57
2019-04-29T20:51:11.654Z,7.50
2019-04-29T20:53:40.007Z,7.40
2019-04-29T20:56:12.511Z,7.27
2019-04-29T20:58:40.240Z,7.13
2019-04-29T21:01:11.474Z,7.10
2019-04-29T21:03:45.316Z,7.30
2019-04-29T21:06:11.569Z,7.40
2019-04-29T21:08:40.416Z,7.47
2019-04-29T21:11:16.130Z,7.27
2019-04-29T21:13:44.371Z,11.47
2019-04-29T21:16:15.218Z,7.23
2019-04-29T21:18:45.554Z,9.53
2019-04-29T21:21:15.316Z,8.53
2019-04-29T21:23:46.026Z,10.43
2019-04-29T21:26:15.866Z,9.10
2019-04-29T21:28:47.020Z,11.23
2019-04-29T21:31:16.601Z,9.33
2019-04-29T21:33:50.714Z,11.47
2019-04-29T21:36:18.969Z,9.77
2019-04-29T21:39:01.623Z,8.77
2019-04-29T21:41:35.881Z,8.60
2019-04-29T21:44:06.347Z,8.50
2019-04-29T21:46:37.340Z,9.23
2019-04-29T21:49:11.465Z,8.13
2019-04-29T21:51:36.893Z,7.40
2019-04-29T21:54:09.708Z,7.63
2019-04-29T21:56:43.575Z,7.60
2019-04-29T21:59:12.323Z,8.10
2019-04-29T22:01:41.033Z,7.33
2019-04-29T22:04:10.233Z,7.60
2019-04-29T22:06:39.368Z,7.83
2019-04-29T22:09:08.915Z,7.60
2019-04-29T22:11:43.022Z,7.47
2019-04-29T22:14:14.149Z,7.53
2019-04-29T22:16:41.856Z,6.70
2019-04-29T22:19:10.706Z,7.27
2019-04-29T22:21:40.119Z,7.77
2019-04-29T22:24:08.993Z,7.37
2019-04-29T22:26:37.933Z,7.60
2019-04-29T22:29:06.999Z,7.33
2019-04-29T22:31:38.384Z,7.57
2019-04-29T22:34:10.012Z,7.43
2019-04-29T22:36:37.518Z,7.40
2019-04-29T22:39:07.798Z,7.03
2019-04-29T22:41:38.525Z,7.13
2019-04-29T22:44:09.274Z,7.33
2019-04-29T22:46:40.037Z,7.20
2019-04-29T22:49:08.902Z,7.70
2019-04-29T22:51:37.859Z,7.50
2019-04-29T22:54:06.881Z,7.67
2019-04-29T22:56:36.184Z,8.37
2019-04-29T22:59:05.787Z,8.00
2019-04-29T23:01:36.369Z,7.80
2019-04-29T23:04:09.550Z,7.47
2019-04-29T23:06:39.826Z,7.57
2019-04-29T23:09:07.696Z,8.53
2019-04-29T23:11:39.384Z,6.90
2019-04-29T23:14:10.025Z,7.33
2019-04-29T23:16:39.157Z,7.40
2019-04-29T23:19:09.890Z,7.80
2019-04-29T23:21:56.781Z,7.17
2019-04-29T23:24:33.621Z,7.60
2019-04-29T23:27:02.567Z,7.00
2019-04-29T23:29:31.677Z,7.07
2019-04-29T23:32:04.732Z,7.30
2019-04-29T23:34:31.775Z,7.43
2019-04-29T23:37:00.687Z,6.87
2019-04-29T23:39:29.890Z,7.90
2019-04-29T23:41:58.883Z,7.37
2019-04-29T23:44:28.006Z,7.10
2019-04-29T23:46:57.027Z,6.90
2019-04-29T23:49:25.997Z,7.00
2019-04-29T23:51:54.891Z,7.47
2019-04-29T23:54:25.225Z,6.93
2019-04-29T23:57:01.987Z,7.90
2019-04-29T23:59:35.087Z,6.77
